sensor_id;sensor_type;location;lat;lon;timestamp;P1;durP1;ratioP1;P2;durP2;ratioP2
76236;SDS011;65038;53.200;6.530;2023-05-07T00:02:14;28.80;;;18.52;;
76236;SDS011;65038;53.200;6.530;2023-05-07T00:04:40;30.30;;;17.25;;
76236;SDS011;65038;53.200;6.530;2023-05-07T00:07:06;29.02;;;18.08;;
76236;SDS011;65038;53.200;6.530;2023-05-07T00:09:32;28.08;;;18.23;;
76236;SDS011;65038;53.200;6.530;2023-05-07T00:11:58;29.65;;;18.25;;
76236;SDS011;65038;53.200;6.530;2023-05-07T00:14:24;28.65;;;19.05;;
76236;SDS011;65038;53.200;6.530;2023-05-07T00:16:50;33.67;;;19.15;;
76236;SDS011;65038;53.200;6.530;2023-05-07T00:19:16;31.20;;;18.90;;
76236;SDS011;65038;53.200;6.530;2023-05-07T00:21:42;31.77;;;19.40;;
76236;SDS011;65038;53.200;6.530;2023-05-07T00:24:08;31.05;;;19.40;;
76236;SDS011;65038;53.200;6.530;2023-05-07T00:26:34;31.33;;;18.98;;
76236;SDS011;65038;53.200;6.530;2023-05-07T00:29:00;34.05;;;20.77;;
76236;SDS011;65038;53.200;6.530;2023-05-07T00:31:26;35.03;;;21.80;;
76236;SDS011;65038;53.200;6.530;2023-05-07T00:33:52;34.85;;;20.77;;
76236;SDS011;65038;53.200;6.530;2023-05-07T00:36:18;32.55;;;20.73;;
76236;SDS011;65038;53.200;6.530;2023-05-07T00:38:45;35.42;;;20.90;;
76236;SDS011;65038;53.200;6.530;2023-05-07T00:41:11;33.28;;;20.40;;
76236;SDS011;65038;53.200;6.530;2023-05-07T00:43:37;39.80;;;21.63;;
76236;SDS011;65038;53.200;6.530;2023-05-07T00:46:03;34.45;;;21.02;;
76236;SDS011;65038;53.200;6.530;2023-05-07T00:48:29;33.80;;;19.85;;
76236;SDS011;65038;53.200;6.530;2023-05-07T00:50:56;37.90;;;21.55;;
76236;SDS011;65038;53.200;6.530;2023-05-07T00:53:22;36.97;;;20.77;;
76236;SDS011;65038;53.200;6.530;2023-05-07T00:55:48;33.30;;;20.35;;
76236;SDS011;65038;53.200;6.530;2023-05-07T00:58:14;33.63;;;19.88;;
76236;SDS011;65038;53.200;6.530;2023-05-07T01:00:41;34.45;;;20.77;;
76236;SDS011;65038;53.200;6.530;2023-05-07T01:03:07;33.25;;;21.13;;
76236;SDS011;65038;53.200;6.530;2023-05-07T01:05:33;37.30;;;22.00;;
76236;SDS011;65038;53.200;6.530;2023-05-07T01:07:59;36.85;;;21.65;;
76236;SDS011;65038;53.200;6.530;2023-05-07T01:10:26;36.60;;;21.38;;
76236;SDS011;65038;53.200;6.530;2023-05-07T01:12:52;33.58;;;20.95;;
76236;SDS011;65038;53.200;6.530;2023-05-07T01:15:19;41.03;;;21.48;;
76236;SDS011;65038;53.200;6.530;2023-05-07T01:17:45;35.67;;;21.52;;
76236;SDS011;65038;53.200;6.530;2023-05-07T01:20:11;38.05;;;21.27;;
76236;SDS011;65038;53.200;6.530;2023-05-07T01:22:39;36.58;;;22.38;;
76236;SDS011;65038;53.200;6.530;2023-05-07T01:25:06;40.95;;;22.80;;
76236;SDS011;65038;53.200;6.530;2023-05-07T01:27:33;38.97;;;23.05;;
76236;SDS011;65038;53.200;6.530;2023-05-07T01:30:00;42.17;;;24.33;;
76236;SDS011;65038;53.200;6.530;2023-05-07T01:34:55;37.40;;;23.38;;
76236;SDS011;65038;53.200;6.530;2023-05-07T01:37:23;43.63;;;24.83;;
76236;SDS011;65038;53.200;6.530;2023-05-07T01:39:49;41.50;;;24.80;;
76236;SDS011;65038;53.200;6.530;2023-05-07T01:42:15;44.75;;;25.58;;
76236;SDS011;65038;53.200;6.530;2023-05-07T01:44:41;41.08;;;23.75;;
76236;SDS011;65038;53.200;6.530;2023-05-07T01:47:07;43.25;;;25.52;;
76236;SDS011;65038;53.200;6.530;2023-05-07T01:49:34;37.70;;;23.40;;
76236;SDS011;65038;53.200;6.530;2023-05-07T01:52:00;43.70;;;24.98;;
76236;SDS011;65038;53.200;6.530;2023-05-07T01:54:27;42.72;;;25.15;;
76236;SDS011;65038;53.200;6.530;2023-05-07T01:59:20;42.80;;;24.95;;
76236;SDS011;65038;53.200;6.530;2023-05-07T02:01:46;43.15;;;24.95;;
76236;SDS011;65038;53.200;6.530;2023-05-07T02:04:12;40.35;;;24.15;;
76236;SDS011;65038;53.200;6.530;2023-05-07T02:06:38;41.83;;;24.20;;
76236;SDS011;65038;53.200;6.530;2023-05-07T02:09:04;40.95;;;23.38;;
76236;SDS011;65038;53.200;6.530;2023-05-07T02:11:30;40.13;;;24.15;;
76236;SDS011;65038;53.200;6.530;2023-05-07T02:13:56;41.10;;;24.20;;
76236;SDS011;65038;53.200;6.530;2023-05-07T02:16:22;44.85;;;24.38;;
76236;SDS011;65038;53.200;6.530;2023-05-07T02:18:49;42.65;;;24.30;;
76236;SDS011;65038;53.200;6.530;2023-05-07T02:21:15;42.75;;;23.98;;
76236;SDS011;65038;53.200;6.530;2023-05-07T02:23:41;41.17;;;23.65;;
76236;SDS011;65038;53.200;6.530;2023-05-07T02:26:07;46.20;;;24.70;;
76236;SDS011;65038;53.200;6.530;2023-05-07T02:28:33;42.15;;;24.48;;
76236;SDS011;65038;53.200;6.530;2023-05-07T02:31:02;46.75;;;25.45;;
76236;SDS011;65038;53.200;6.530;2023-05-07T02:33:28;42.40;;;23.60;;
76236;SDS011;65038;53.200;6.530;2023-05-07T02:35:54;46.20;;;24.98;;
76236;SDS011;65038;53.200;6.530;2023-05-07T02:38:20;45.72;;;25.38;;
76236;SDS011;65038;53.200;6.530;2023-05-07T02:40:46;45.22;;;25.38;;
76236;SDS011;65038;53.200;6.530;2023-05-07T02:43:12;46.55;;;25.00;;
76236;SDS011;65038;53.200;6.530;2023-05-07T02:45:38;43.97;;;24.80;;
76236;SDS011;65038;53.200;6.530;2023-05-07T02:48:04;45.58;;;25.77;;
76236;SDS011;65038;53.200;6.530;2023-05-07T02:50:31;46.67;;;25.70;;
76236;SDS011;65038;53.200;6.530;2023-05-07T02:52:57;47.35;;;25.63;;
76236;SDS011;65038;53.200;6.530;2023-05-07T02:55:23;45.67;;;25.45;;
76236;SDS011;65038;53.200;6.530;2023-05-07T02:57:49;48.33;;;25.98;;
76236;SDS011;65038;53.200;6.530;2023-05-07T03:00:17;45.45;;;24.90;;
76236;SDS011;65038;53.200;6.530;2023-05-07T03:02:44;47.92;;;26.25;;
76236;SDS011;65038;53.200;6.530;2023-05-07T03:05:10;48.20;;;26.52;;
76236;SDS011;65038;53.200;6.530;2023-05-07T03:07:37;46.20;;;25.08;;
76236;SDS011;65038;53.200;6.530;2023-05-07T03:10:04;45.38;;;25.42;;
76236;SDS011;65038;53.200;6.530;2023-05-07T03:12:30;45.40;;;24.70;;
76236;SDS011;65038;53.200;6.530;2023-05-07T03:14:56;45.92;;;25.60;;
76236;SDS011;65038;53.200;6.530;2023-05-07T03:17:22;45.38;;;25.52;;
76236;SDS011;65038;53.200;6.530;2023-05-07T03:19:48;49.53;;;26.50;;
76236;SDS011;65038;53.200;6.530;2023-05-07T03:22:14;47.75;;;26.27;;
76236;SDS011;65038;53.200;6.530;2023-05-07T03:24:40;47.22;;;25.35;;
76236;SDS011;65038;53.200;6.530;2023-05-07T03:27:06;47.10;;;25.95;;
76236;SDS011;65038;53.200;6.530;2023-05-07T03:29:32;50.53;;;27.23;;
76236;SDS011;65038;53.200;6.530;2023-05-07T03:31:58;45.92;;;26.45;;
76236;SDS011;65038;53.200;6.530;2023-05-07T03:34:24;45.28;;;25.52;;
76236;SDS011;65038;53.200;6.530;2023-05-07T03:36:51;44.03;;;24.88;;
76236;SDS011;65038;53.200;6.530;2023-05-07T03:39:17;46.95;;;26.15;;
76236;SDS011;65038;53.200;6.530;2023-05-07T03:41:43;49.05;;;26.67;;
76236;SDS011;65038;53.200;6.530;2023-05-07T03:44:09;50.67;;;26.88;;
76236;SDS011;65038;53.200;6.530;2023-05-07T03:46:35;50.67;;;28.17;;
76236;SDS011;65038;53.200;6.530;2023-05-07T03:49:01;54.70;;;27.67;;
76236;SDS011;65038;53.200;6.530;2023-05-07T03:51:27;52.53;;;27.38;;
76236;SDS011;65038;53.200;6.530;2023-05-07T03:53:53;48.88;;;26.38;;
76236;SDS011;65038;53.200;6.530;2023-05-07T03:56:19;52.10;;;27.13;;
76236;SDS011;65038;53.200;6.530;2023-05-07T03:58:46;51.58;;;27.95;;
76236;SDS011;65038;53.200;6.530;2023-05-07T04:01:12;54.35;;;27.08;;
76236;SDS011;65038;53.200;6.530;2023-05-07T04:03:38;55.80;;;28.58;;
76236;SDS011;65038;53.200;6.530;2023-05-07T04:06:05;46.75;;;26.40;;
76236;SDS011;65038;53.200;6.530;2023-05-07T04:08:31;47.53;;;26.65;;
76236;SDS011;65038;53.200;6.530;2023-05-07T04:10:57;41.70;;;25.00;;
76236;SDS011;65038;53.200;6.530;2023-05-07T04:13:24;48.55;;;26.92;;
76236;SDS011;65038;53.200;6.530;2023-05-07T04:15:50;45.22;;;27.40;;
76236;SDS011;65038;53.200;6.530;2023-05-07T04:18:16;47.97;;;26.17;;
76236;SDS011;65038;53.200;6.530;2023-05-07T04:20:42;48.50;;;26.50;;
76236;SDS011;65038;53.200;6.530;2023-05-07T04:23:08;48.83;;;27.00;;
76236;SDS011;65038;53.200;6.530;2023-05-07T04:25:34;50.75;;;27.40;;
76236;SDS011;65038;53.200;6.530;2023-05-07T04:28:01;51.88;;;27.95;;
76236;SDS011;65038;53.200;6.530;2023-05-07T04:30:27;46.53;;;25.17;;
76236;SDS011;65038;53.200;6.530;2023-05-07T04:32:53;49.40;;;26.63;;
76236;SDS011;65038;53.200;6.530;2023-05-07T04:35:19;46.83;;;26.08;;
76236;SDS011;65038;53.200;6.530;2023-05-07T04:37:45;48.20;;;25.25;;
76236;SDS011;65038;53.200;6.530;2023-05-07T04:40:11;47.30;;;25.98;;
76236;SDS011;65038;53.200;6.530;2023-05-07T04:42:37;52.33;;;27.48;;
76236;SDS011;65038;53.200;6.530;2023-05-07T04:45:03;51.10;;;27.02;;
76236;SDS011;65038;53.200;6.530;2023-05-07T04:47:30;46.70;;;25.60;;
76236;SDS011;65038;53.200;6.530;2023-05-07T04:49:57;47.10;;;25.80;;
76236;SDS011;65038;53.200;6.530;2023-05-07T04:52:23;46.03;;;25.58;;
76236;SDS011;65038;53.200;6.530;2023-05-07T04:54:49;42.60;;;24.67;;
76236;SDS011;65038;53.200;6.530;2023-05-07T04:57:15;45.85;;;25.70;;
76236;SDS011;65038;53.200;6.530;2023-05-07T04:59:42;41.92;;;24.80;;
76236;SDS011;65038;53.200;6.530;2023-05-07T05:02:09;41.72;;;24.30;;
76236;SDS011;65038;53.200;6.530;2023-05-07T05:04:35;43.45;;;24.52;;
76236;SDS011;65038;53.200;6.530;2023-05-07T05:07:02;45.63;;;25.73;;
76236;SDS011;65038;53.200;6.530;2023-05-07T05:09:29;42.83;;;25.13;;
76236;SDS011;65038;53.200;6.530;2023-05-07T05:11:55;35.90;;;22.73;;
76236;SDS011;65038;53.200;6.530;2023-05-07T05:14:21;41.03;;;24.15;;
76236;SDS011;65038;53.200;6.530;2023-05-07T05:16:47;43.33;;;24.63;;
76236;SDS011;65038;53.200;6.530;2023-05-07T05:19:13;43.95;;;24.95;;
76236;SDS011;65038;53.200;6.530;2023-05-07T05:21:39;43.50;;;23.85;;
76236;SDS011;65038;53.200;6.530;2023-05-07T05:24:05;40.15;;;22.92;;
76236;SDS011;65038;53.200;6.530;2023-05-07T05:26:31;39.47;;;23.42;;
76236;SDS011;65038;53.200;6.530;2023-05-07T05:28:57;38.40;;;23.15;;
76236;SDS011;65038;53.200;6.530;2023-05-07T05:31:23;37.92;;;22.80;;
76236;SDS011;65038;53.200;6.530;2023-05-07T05:33:49;35.42;;;21.90;;
76236;SDS011;65038;53.200;6.530;2023-05-07T05:36:15;38.97;;;23.52;;
76236;SDS011;65038;53.200;6.530;2023-05-07T05:38:41;39.83;;;23.65;;
76236;SDS011;65038;53.200;6.530;2023-05-07T05:41:07;38.78;;;23.58;;
76236;SDS011;65038;53.200;6.530;2023-05-07T05:43:33;41.25;;;23.48;;
76236;SDS011;65038;53.200;6.530;2023-05-07T05:45:59;39.47;;;23.23;;
76236;SDS011;65038;53.200;6.530;2023-05-07T05:48:25;35.78;;;22.05;;
76236;SDS011;65038;53.200;6.530;2023-05-07T05:50:52;38.58;;;23.33;;
76236;SDS011;65038;53.200;6.530;2023-05-07T05:53:18;35.88;;;22.23;;
76236;SDS011;65038;53.200;6.530;2023-05-07T05:55:44;38.72;;;22.67;;
76236;SDS011;65038;53.200;6.530;2023-05-07T05:58:10;35.50;;;21.17;;
76236;SDS011;65038;53.200;6.530;2023-05-07T06:00:36;36.83;;;22.13;;
76236;SDS011;65038;53.200;6.530;2023-05-07T06:03:02;35.80;;;22.73;;
76236;SDS011;65038;53.200;6.530;2023-05-07T06:05:28;38.92;;;22.48;;
76236;SDS011;65038;53.200;6.530;2023-05-07T06:07:54;42.40;;;22.27;;
76236;SDS011;65038;53.200;6.530;2023-05-07T06:10:20;34.58;;;21.80;;
76236;SDS011;65038;53.200;6.530;2023-05-07T06:12:46;37.70;;;21.90;;
76236;SDS011;65038;53.200;6.530;2023-05-07T06:15:12;36.20;;;21.95;;
76236;SDS011;65038;53.200;6.530;2023-05-07T06:17:38;36.28;;;21.30;;
76236;SDS011;65038;53.200;6.530;2023-05-07T06:20:04;31.95;;;20.92;;
76236;SDS011;65038;53.200;6.530;2023-05-07T06:22:30;35.78;;;21.55;;
76236;SDS011;65038;53.200;6.530;2023-05-07T06:24:56;31.75;;;20.35;;
76236;SDS011;65038;53.200;6.530;2023-05-07T06:27:22;33.47;;;20.20;;
76236;SDS011;65038;53.200;6.530;2023-05-07T06:29:48;29.88;;;19.23;;
76236;SDS011;65038;53.200;6.530;2023-05-07T06:32:14;28.35;;;19.38;;
76236;SDS011;65038;53.200;6.530;2023-05-07T06:34:42;29.00;;;19.35;;
76236;SDS011;65038;53.200;6.530;2023-05-07T06:37:08;31.83;;;20.23;;
76236;SDS011;65038;53.200;6.530;2023-05-07T06:39:34;29.35;;;18.80;;
76236;SDS011;65038;53.200;6.530;2023-05-07T06:42:00;32.70;;;19.60;;
76236;SDS011;65038;53.200;6.530;2023-05-07T06:44:27;29.95;;;19.45;;
76236;SDS011;65038;53.200;6.530;2023-05-07T06:46:53;31.55;;;19.77;;
76236;SDS011;65038;53.200;6.530;2023-05-07T06:49:19;30.15;;;19.65;;
76236;SDS011;65038;53.200;6.530;2023-05-07T06:51:45;30.55;;;19.27;;
76236;SDS011;65038;53.200;6.530;2023-05-07T06:54:11;32.03;;;19.42;;
76236;SDS011;65038;53.200;6.530;2023-05-07T06:56:37;31.73;;;19.50;;
76236;SDS011;65038;53.200;6.530;2023-05-07T06:59:03;29.95;;;19.85;;
76236;SDS011;65038;53.200;6.530;2023-05-07T07:01:29;28.15;;;18.75;;
76236;SDS011;65038;53.200;6.530;2023-05-07T07:03:55;28.80;;;18.50;;
76236;SDS011;65038;53.200;6.530;2023-05-07T07:06:21;29.52;;;18.63;;
76236;SDS011;65038;53.200;6.530;2023-05-07T07:08:47;34.08;;;20.05;;
76236;SDS011;65038;53.200;6.530;2023-05-07T07:11:13;30.52;;;19.15;;
76236;SDS011;65038;53.200;6.530;2023-05-07T07:13:39;28.80;;;18.30;;
76236;SDS011;65038;53.200;6.530;2023-05-07T07:16:05;30.33;;;18.83;;
76236;SDS011;65038;53.200;6.530;2023-05-07T07:18:31;28.45;;;17.98;;
76236;SDS011;65038;53.200;6.530;2023-05-07T07:20:57;30.73;;;19.05;;
76236;SDS011;65038;53.200;6.530;2023-05-07T07:23:24;29.52;;;19.00;;
76236;SDS011;65038;53.200;6.530;2023-05-07T07:25:50;30.33;;;18.13;;
76236;SDS011;65038;53.200;6.530;2023-05-07T07:28:16;29.95;;;18.55;;
76236;SDS011;65038;53.200;6.530;2023-05-07T07:30:42;29.70;;;18.33;;
76236;SDS011;65038;53.200;6.530;2023-05-07T07:33:09;31.38;;;18.95;;
76236;SDS011;65038;53.200;6.530;2023-05-07T07:35:35;31.63;;;18.85;;
76236;SDS011;65038;53.200;6.530;2023-05-07T07:38:01;30.40;;;19.27;;
76236;SDS011;65038;53.200;6.530;2023-05-07T07:40:27;31.73;;;19.10;;
76236;SDS011;65038;53.200;6.530;2023-05-07T07:42:53;32.08;;;19.42;;
76236;SDS011;65038;53.200;6.530;2023-05-07T07:45:20;31.73;;;18.83;;
76236;SDS011;65038;53.200;6.530;2023-05-07T07:47:46;30.35;;;18.88;;
76236;SDS011;65038;53.200;6.530;2023-05-07T07:50:12;30.55;;;19.33;;
76236;SDS011;65038;53.200;6.530;2023-05-07T07:52:38;31.20;;;19.45;;
76236;SDS011;65038;53.200;6.530;2023-05-07T07:55:04;29.75;;;19.27;;
76236;SDS011;65038;53.200;6.530;2023-05-07T07:57:30;31.45;;;19.05;;
76236;SDS011;65038;53.200;6.530;2023-05-07T07:59:56;28.90;;;18.98;;
76236;SDS011;65038;53.200;6.530;2023-05-07T08:02:22;29.55;;;18.75;;
76236;SDS011;65038;53.200;6.530;2023-05-07T08:04:48;28.52;;;17.83;;
76236;SDS011;65038;53.200;6.530;2023-05-07T08:07:14;29.20;;;18.58;;
76236;SDS011;65038;53.200;6.530;2023-05-07T08:09:43;29.42;;;17.45;;
76236;SDS011;65038;53.200;6.530;2023-05-07T08:12:09;29.02;;;18.08;;
76236;SDS011;65038;53.200;6.530;2023-05-07T08:14:35;27.63;;;18.08;;
76236;SDS011;65038;53.200;6.530;2023-05-07T08:17:02;29.35;;;18.63;;
76236;SDS011;65038;53.200;6.530;2023-05-07T08:19:28;27.02;;;18.15;;
76236;SDS011;65038;53.200;6.530;2023-05-07T08:21:54;28.23;;;18.10;;
76236;SDS011;65038;53.200;6.530;2023-05-07T08:24:20;28.30;;;17.70;;
76236;SDS011;65038;53.200;6.530;2023-05-07T08:26:46;29.10;;;18.10;;
76236;SDS011;65038;53.200;6.530;2023-05-07T08:29:12;28.48;;;18.75;;
76236;SDS011;65038;53.200;6.530;2023-05-07T08:31:38;27.02;;;17.73;;
76236;SDS011;65038;53.200;6.530;2023-05-07T08:34:04;28.30;;;18.10;;
76236;SDS011;65038;53.200;6.530;2023-05-07T08:36:31;29.10;;;16.95;;
76236;SDS011;65038;53.200;6.530;2023-05-07T08:38:57;26.75;;;18.30;;
76236;SDS011;65038;53.200;6.530;2023-05-07T08:41:23;26.67;;;16.42;;
76236;SDS011;65038;53.200;6.530;2023-05-07T08:43:50;29.15;;;17.98;;
76236;SDS011;65038;53.200;6.530;2023-05-07T08:46:20;27.17;;;17.95;;
76236;SDS011;65038;53.200;6.530;2023-05-07T08:48:49;27.48;;;18.13;;
76236;SDS011;65038;53.200;6.530;2023-05-07T08:51:16;26.50;;;17.23;;
76236;SDS011;65038;53.200;6.530;2023-05-07T08:53:49;26.48;;;17.48;;
76236;SDS011;65038;53.200;6.530;2023-05-07T08:56:15;28.40;;;17.10;;
76236;SDS011;65038;53.200;6.530;2023-05-07T08:58:44;30.38;;;18.23;;
76236;SDS011;65038;53.200;6.530;2023-05-07T09:01:14;27.42;;;17.40;;
76236;SDS011;65038;53.200;6.530;2023-05-07T09:03:40;25.67;;;17.15;;
76236;SDS011;65038;53.200;6.530;2023-05-07T09:06:07;27.25;;;17.35;;
76236;SDS011;65038;53.200;6.530;2023-05-07T09:08:33;28.35;;;17.80;;
76236;SDS011;65038;53.200;6.530;2023-05-07T09:10:59;25.98;;;16.83;;
76236;SDS011;65038;53.200;6.530;2023-05-07T09:13:27;27.63;;;17.30;;
76236;SDS011;65038;53.200;6.530;2023-05-07T09:15:53;26.77;;;16.83;;
76236;SDS011;65038;53.200;6.530;2023-05-07T09:18:19;26.15;;;16.70;;
76236;SDS011;65038;53.200;6.530;2023-05-07T09:20:45;28.63;;;17.20;;
76236;SDS011;65038;53.200;6.530;2023-05-07T09:23:11;26.88;;;17.33;;
76236;SDS011;65038;53.200;6.530;2023-05-07T09:25:37;27.23;;;17.05;;
76236;SDS011;65038;53.200;6.530;2023-05-07T09:28:04;24.70;;;16.25;;
76236;SDS011;65038;53.200;6.530;2023-05-07T09:30:35;27.55;;;16.95;;
76236;SDS011;65038;53.200;6.530;2023-05-07T09:33:02;27.63;;;16.92;;
76236;SDS011;65038;53.200;6.530;2023-05-07T09:35:28;25.55;;;16.75;;
76236;SDS011;65038;53.200;6.530;2023-05-07T09:37:58;27.05;;;17.30;;
76236;SDS011;65038;53.200;6.530;2023-05-07T09:40:25;26.15;;;17.05;;
76236;SDS011;65038;53.200;6.530;2023-05-07T09:42:52;27.42;;;16.60;;
76236;SDS011;65038;53.200;6.530;2023-05-07T09:45:21;27.08;;;16.75;;
76236;SDS011;65038;53.200;6.530;2023-05-07T09:47:48;26.77;;;16.08;;
76236;SDS011;65038;53.200;6.530;2023-05-07T09:50:15;26.00;;;16.98;;
76236;SDS011;65038;53.200;6.530;2023-05-07T09:52:41;24.60;;;16.83;;
76236;SDS011;65038;53.200;6.530;2023-05-07T09:55:08;25.42;;;16.77;;
76236;SDS011;65038;53.200;6.530;2023-05-07T09:57:34;27.90;;;16.73;;
76236;SDS011;65038;53.200;6.530;2023-05-07T10:00:02;24.73;;;16.13;;
76236;SDS011;65038;53.200;6.530;2023-05-07T10:02:33;27.08;;;15.70;;
76236;SDS011;65038;53.200;6.530;2023-05-07T10:05:01;26.42;;;16.77;;
76236;SDS011;65038;53.200;6.530;2023-05-07T10:07:28;25.98;;;16.77;;
76236;SDS011;65038;53.200;6.530;2023-05-07T10:09:55;25.23;;;16.15;;
76236;SDS011;65038;53.200;6.530;2023-05-07T10:12:23;24.13;;;15.35;;
76236;SDS011;65038;53.200;6.530;2023-05-07T10:14:52;24.00;;;15.35;;
76236;SDS011;65038;53.200;6.530;2023-05-07T10:17:18;22.27;;;14.98;;
76236;SDS011;65038;53.200;6.530;2023-05-07T10:19:44;24.42;;;15.82;;
76236;SDS011;65038;53.200;6.530;2023-05-07T10:22:10;24.33;;;16.20;;
76236;SDS011;65038;53.200;6.530;2023-05-07T10:24:36;23.00;;;15.68;;
76236;SDS011;65038;53.200;6.530;2023-05-07T10:27:08;22.67;;;14.98;;
76236;SDS011;65038;53.200;6.530;2023-05-07T10:34:53;21.77;;;14.27;;
76236;SDS011;65038;53.200;6.530;2023-05-07T10:37:19;23.27;;;15.00;;
76236;SDS011;65038;53.200;6.530;2023-05-07T10:39:45;21.52;;;14.77;;
76236;SDS011;65038;53.200;6.530;2023-05-07T10:42:11;22.67;;;14.90;;
76236;SDS011;65038;53.200;6.530;2023-05-07T10:44:38;19.83;;;14.48;;
76236;SDS011;65038;53.200;6.530;2023-05-07T10:47:08;20.55;;;13.60;;
76236;SDS011;65038;53.200;6.530;2023-05-07T10:50:20;20.40;;;13.75;;
76236;SDS011;65038;53.200;6.530;2023-05-07T10:52:21;21.65;;;14.35;;
76236;SDS011;65038;53.200;6.530;2023-05-07T10:57:40;18.55;;;13.40;;
76236;SDS011;65038;53.200;6.530;2023-05-07T11:05:29;17.85;;;13.07;;
76236;SDS011;65038;53.200;6.530;2023-05-07T11:07:59;22.27;;;14.45;;
76236;SDS011;65038;53.200;6.530;2023-05-07T11:13:10;23.95;;;13.35;;
76236;SDS011;65038;53.200;6.530;2023-05-07T11:15:37;19.48;;;12.23;;
76236;SDS011;65038;53.200;6.530;2023-05-07T11:18:03;19.25;;;13.23;;
76236;SDS011;65038;53.200;6.530;2023-05-07T11:20:45;20.00;;;13.60;;
76236;SDS011;65038;53.200;6.530;2023-05-07T11:26:06;16.77;;;12.52;;
76236;SDS011;65038;53.200;6.530;2023-05-07T11:28:37;16.25;;;12.27;;
76236;SDS011;65038;53.200;6.530;2023-05-07T11:31:03;16.30;;;11.63;;
76236;SDS011;65038;53.200;6.530;2023-05-07T11:33:30;17.55;;;12.23;;
76236;SDS011;65038;53.200;6.530;2023-05-07T11:35:56;17.65;;;12.55;;
76236;SDS011;65038;53.200;6.530;2023-05-07T11:38:22;15.90;;;11.55;;
76236;SDS011;65038;53.200;6.530;2023-05-07T11:40:52;17.90;;;13.20;;
76236;SDS011;65038;53.200;6.530;2023-05-07T11:43:19;16.73;;;12.00;;
76236;SDS011;65038;53.200;6.530;2023-05-07T11:45:45;17.38;;;12.35;;
76236;SDS011;65038;53.200;6.530;2023-05-07T11:48:15;18.10;;;11.93;;
76236;SDS011;65038;53.200;6.530;2023-05-07T11:53:17;16.65;;;11.30;;
76236;SDS011;65038;53.200;6.530;2023-05-07T11:55:44;16.75;;;11.98;;
76236;SDS011;65038;53.200;6.530;2023-05-07T11:58:10;16.35;;;11.65;;
76236;SDS011;65038;53.200;6.530;2023-05-07T12:00:36;16.90;;;11.82;;
76236;SDS011;65038;53.200;6.530;2023-05-07T12:03:05;16.17;;;11.57;;
76236;SDS011;65038;53.200;6.530;2023-05-07T12:05:32;15.93;;;11.93;;
76236;SDS011;65038;53.200;6.530;2023-05-07T12:07:58;17.60;;;12.27;;
76236;SDS011;65038;53.200;6.530;2023-05-07T12:10:23;15.20;;;11.43;;
76236;SDS011;65038;53.200;6.530;2023-05-07T12:12:50;16.58;;;12.00;;
76236;SDS011;65038;53.200;6.530;2023-05-07T12:15:16;15.68;;;11.93;;
76236;SDS011;65038;53.200;6.530;2023-05-07T12:17:43;14.88;;;11.45;;
76236;SDS011;65038;53.200;6.530;2023-05-07T12:20:09;15.35;;;11.63;;
76236;SDS011;65038;53.200;6.530;2023-05-07T12:22:35;15.30;;;11.75;;
76236;SDS011;65038;53.200;6.530;2023-05-07T12:25:03;15.80;;;11.25;;
76236;SDS011;65038;53.200;6.530;2023-05-07T12:27:30;14.07;;;10.65;;
76236;SDS011;65038;53.200;6.530;2023-05-07T12:29:57;15.02;;;11.02;;
76236;SDS011;65038;53.200;6.530;2023-05-07T12:32:24;15.02;;;11.07;;
76236;SDS011;65038;53.200;6.530;2023-05-07T12:34:50;16.70;;;11.27;;
76236;SDS011;65038;53.200;6.530;2023-05-07T12:37:17;15.75;;;11.68;;
76236;SDS011;65038;53.200;6.530;2023-05-07T12:39:48;14.57;;;10.45;;
76236;SDS011;65038;53.200;6.530;2023-05-07T12:42:15;15.57;;;10.95;;
76236;SDS011;65038;53.200;6.530;2023-05-07T12:44:41;14.13;;;10.98;;
76236;SDS011;65038;53.200;6.530;2023-05-07T12:47:10;15.48;;;10.23;;
76236;SDS011;65038;53.200;6.530;2023-05-07T12:49:37;14.00;;;11.00;;
76236;SDS011;65038;53.200;6.530;2023-05-07T12:52:05;14.27;;;10.73;;
76236;SDS011;65038;53.200;6.530;2023-05-07T12:54:31;14.07;;;10.52;;
76236;SDS011;65038;53.200;6.530;2023-05-07T12:57:01;14.20;;;10.68;;
76236;SDS011;65038;53.200;6.530;2023-05-07T12:59:32;12.57;;;10.27;;
76236;SDS011;65038;53.200;6.530;2023-05-07T13:01:58;12.75;;;9.88;;
76236;SDS011;65038;53.200;6.530;2023-05-07T13:04:24;13.50;;;10.07;;
76236;SDS011;65038;53.200;6.530;2023-05-07T13:06:51;13.63;;;9.90;;
76236;SDS011;65038;53.200;6.530;2023-05-07T13:09:17;13.32;;;9.73;;
76236;SDS011;65038;53.200;6.530;2023-05-07T13:11:43;12.65;;;10.02;;
76236;SDS011;65038;53.200;6.530;2023-05-07T13:14:09;13.90;;;10.25;;
76236;SDS011;65038;53.200;6.530;2023-05-07T13:16:35;13.52;;;10.38;;
76236;SDS011;65038;53.200;6.530;2023-05-07T13:19:00;13.88;;;10.43;;
76236;SDS011;65038;53.200;6.530;2023-05-07T13:21:27;14.10;;;9.52;;
76236;SDS011;65038;53.200;6.530;2023-05-07T13:23:53;11.98;;;9.30;;
76236;SDS011;65038;53.200;6.530;2023-05-07T13:26:19;11.57;;;9.25;;
76236;SDS011;65038;53.200;6.530;2023-05-07T13:28:45;11.50;;;8.90;;
76236;SDS011;65038;53.200;6.530;2023-05-07T13:31:11;13.85;;;10.20;;
76236;SDS011;65038;53.200;6.530;2023-05-07T13:33:37;13.23;;;10.10;;
76236;SDS011;65038;53.200;6.530;2023-05-07T13:36:03;11.60;;;9.10;;
76236;SDS011;65038;53.200;6.530;2023-05-07T13:38:30;13.75;;;9.68;;
76236;SDS011;65038;53.200;6.530;2023-05-07T13:40:57;10.38;;;8.35;;
76236;SDS011;65038;53.200;6.530;2023-05-07T13:43:24;11.15;;;8.85;;
76236;SDS011;65038;53.200;6.530;2023-05-07T13:45:50;13.05;;;9.32;;
76236;SDS011;65038;53.200;6.530;2023-05-07T13:48:16;10.50;;;8.52;;
76236;SDS011;65038;53.200;6.530;2023-05-07T13:50:42;10.48;;;8.65;;
76236;SDS011;65038;53.200;6.530;2023-05-07T13:53:08;11.30;;;9.05;;
76236;SDS011;65038;53.200;6.530;2023-05-07T13:55:34;12.23;;;8.63;;
76236;SDS011;65038;53.200;6.530;2023-05-07T13:58:01;11.23;;;8.75;;
76236;SDS011;65038;53.200;6.530;2023-05-07T14:00:28;11.75;;;9.07;;
76236;SDS011;65038;53.200;6.530;2023-05-07T14:02:54;13.52;;;9.50;;
76236;SDS011;65038;53.200;6.530;2023-05-07T14:05:21;11.70;;;8.48;;
76236;SDS011;65038;53.200;6.530;2023-05-07T14:07:48;11.20;;;9.02;;
76236;SDS011;65038;53.200;6.530;2023-05-07T14:10:16;12.00;;;8.75;;
76236;SDS011;65038;53.200;6.530;2023-05-07T14:12:43;11.18;;;8.13;;
76236;SDS011;65038;53.200;6.530;2023-05-07T14:15:09;11.13;;;8.48;;
76236;SDS011;65038;53.200;6.530;2023-05-07T14:17:35;11.60;;;8.52;;
76236;SDS011;65038;53.200;6.530;2023-05-07T14:20:02;13.18;;;9.00;;
76236;SDS011;65038;53.200;6.530;2023-05-07T14:22:28;12.77;;;9.18;;
76236;SDS011;65038;53.200;6.530;2023-05-07T14:24:54;11.00;;;8.30;;
76236;SDS011;65038;53.200;6.530;2023-05-07T14:27:22;10.75;;;8.50;;
76236;SDS011;65038;53.200;6.530;2023-05-07T14:29:48;9.60;;;8.00;;
76236;SDS011;65038;53.200;6.530;2023-05-07T14:32:16;10.27;;;8.38;;
76236;SDS011;65038;53.200;6.530;2023-05-07T14:34:43;17.98;;;11.95;;
76236;SDS011;65038;53.200;6.530;2023-05-07T14:37:09;11.57;;;8.95;;
76236;SDS011;65038;53.200;6.530;2023-05-07T14:39:35;11.10;;;8.00;;
76236;SDS011;65038;53.200;6.530;2023-05-07T14:42:01;10.15;;;8.30;;
76236;SDS011;65038;53.200;6.530;2023-05-07T14:44:27;11.55;;;8.23;;
76236;SDS011;65038;53.200;6.530;2023-05-07T14:46:54;10.23;;;7.97;;